Time;durP1;ratioP1;P1;durP2;ratioP2;P2;SDS_P1;SDS_P2;PMS_P1;PMS_P2;Temp;Humidity;BMP_temperature;BMP_pressure;BME280_temperature;BME280_humidity;BME280_pressure;Samples;Min_cycle;Max_cycle;Signal;HPM_P1;HPM_P2
2022/12/25 00:02:09;;;;;;;4.83;2.57;;;;;;;12.60;64.47;97605.50;5073395;28;20649;-73
2022/12/25 00:04:34;;;;;;;4.80;2.80;;;;;;;12.57;64.68;97602.34;5091542;28;20368;-72
2022/12/25 00:06:59;;;;;;;3.40;3.00;;;;;;;12.52;64.78;97604.63;5074288;28;20229;-72
2022/12/25 00:09:25;;;;;;;2.80;2.57;;;;;;;12.56;64.90;97621.75;5072998;28;20305;-72
2022/12/25 00:11:50;;;;;;;6.60;2.20;;;;;;;12.61;64.69;97608.94;5065805;28;20178;-72
2022/12/25 00:14:16;;;;;;;4.97;2.83;;;;;;;12.66;64.91;97613.75;5063705;28;20356;-74
2022/12/25 00:16:42;;;;;;;3.20;2.50;;;;;;;12.68;64.52;97615.25;5087493;28;20174;-72
2022/12/25 00:19:07;;;;;;;3.60;2.43;;;;;;;12.66;64.48;97622.44;5071175;28;20661;-72
2022/12/25 00:21:32;;;;;;;7.70;2.90;;;;;;;12.67;64.67;97618.00;5071830;28;20182;-73
2022/12/25 00:23:58;;;;;;;5.07;2.80;;;;;;;12.67;64.51;97620.63;5071999;28;20209;-72
2022/12/25 00:26:25;;;;;;;3.87;3.20;;;;;;;12.61;64.90;97614.19;5070125;28;20184;-73
2022/12/25 00:28:52;;;;;;;4.70;2.87;;;;;;;12.57;64.94;97610.25;5061630;28;20199;-73
2022/12/25 00:31:18;;;;;;;4.40;2.80;;;;;;;12.60;65.11;97608.13;5071998;28;20845;-73
2022/12/25 00:33:45;;;;;;;5.03;3.43;;;;;;;12.60;65.15;97608.13;5075151;28;20436;-72
2022/12/25 00:36:12;;;;;;;6.07;3.60;;;;;;;12.63;65.46;97608.81;5076161;28;20174;-73
2022/12/25 00:38:39;;;;;;;4.60;2.83;;;;;;;12.64;64.92;97613.88;5075669;28;20794;-72
2022/12/25 00:41:06;;;;;;;4.00;3.20;;;;;;;12.68;65.05;97615.25;5071091;28;20418;-73
2022/12/25 00:43:31;;;;;;;9.20;3.00;;;;;;;12.63;64.57;97609.59;5052686;28;20484;-71
2022/12/25 00:46:01;;;;;;;6.13;2.63;;;;;;;12.63;64.78;97612.25;5075090;28;20456;-73
2022/12/25 00:48:28;;;;;;;3.47;3.10;;;;;;;12.58;64.90;97606.63;5073752;28;20534;-73
2022/12/25 00:50:55;;;;;;;4.97;3.30;;;;;;;12.52;65.12;97612.50;5076382;28;20425;-73
2022/12/25 00:53:20;;;;;;;5.10;2.67;;;;;;;12.56;65.11;97611.22;5075702;28;20440;-72
2022/12/25 00:55:54;;;;;;;4.90;2.50;;;;;;;12.60;65.05;97617.84;5076113;28;20420;-74
2022/12/25 00:58:20;;;;;;;7.10;2.90;;;;;;;12.61;64.71;97616.81;5071650;28;20227;-73
2022/12/25 01:00:46;;;;;;;3.90;2.00;;;;;;;12.57;64.67;97611.06;5064519;28;20501;-74
2022/12/25 01:03:11;;;;;;;4.53;2.30;;;;;;;12.58;64.63;97614.53;5073635;28;20559;-74
2022/12/25 01:05:37;;;;;;;4.97;2.50;;;;;;;12.51;65.26;97605.59;5062476;28;20448;-73
2022/12/25 01:08:02;;;;;;;3.83;2.37;;;;;;;12.53;65.17;97601.84;5075054;28;20285;-73
2022/12/25 01:10:28;;;;;;;3.60;2.50;;;;;;;12.46;65.19;97594.72;5068228;28;20213;-74
2022/12/25 01:12:53;;;;;;;4.23;2.50;;;;;;;12.42;65.00;97604.72;5068800;28;20286;-74
2022/12/25 01:15:19;;;;;;;4.47;2.77;;;;;;;12.48;65.51;97603.25;5072362;28;20178;-73
2022/12/25 01:17:45;;;;;;;7.17;2.80;;;;;;;12.46;64.94;97600.81;5057172;28;20587;-73
2022/12/25 01:20:11;;;;;;;4.53;2.70;;;;;;;12.46;65.22;97607.88;5093092;28;20208;-72
2022/12/25 01:22:36;;;;;;;4.83;2.90;;;;;;;12.50;65.22;97604.78;5075411;28;20228;-72
2022/12/25 01:25:03;;;;;;;4.33;2.90;;;;;;;12.54;65.43;97606.09;5075028;28;20421;-73
2022/12/25 01:27:30;;;;;;;5.17;2.90;;;;;;;12.57;64.88;97607.63;5074404;28;20236;-73
2022/12/25 01:29:56;;;;;;;5.33;2.93;;;;;;;12.59;64.90;97605.66;5064791;28;20433;-74
2022/12/25 01:32:21;;;;;;;6.23;2.87;;;;;;;12.60;64.99;97607.31;5072900;28;20524;-73
2022/12/25 01:34:47;;;;;;;2.87;2.40;;;;;;;12.58;64.57;97614.53;5074712;28;20687;-74
2022/12/25 01:37:12;;;;;;;4.43;2.50;;;;;;;12.55;64.78;97626.16;5073769;28;20756;-71
2022/12/25 01:39:38;;;;;;;5.27;2.93;;;;;;;12.58;65.09;97628.47;5074109;28;20379;-72
2022/12/25 01:42:03;;;;;;;4.77;2.63;;;;;;;12.60;64.86;97639.69;5070461;28;20550;-74
2022/12/25 01:44:35;;;;;;;5.60;2.50;;;;;;;12.56;64.93;97640.97;5074072;28;20240;-73
2022/12/25 01:47:01;;;;;;;3.20;2.13;;;;;;;12.59;65.10;97637.22;5074528;28;20194;-71
2022/12/25 01:49:27;;;;;;;4.63;2.80;;;;;;;12.60;65.08;97639.69;5073689;28;20487;-74
2022/12/25 01:52:04;;;;;;;4.67;2.80;;;;;;;12.60;65.22;97633.59;5073686;28;20416;-73
2022/12/25 01:54:36;;;;;;;5.27;2.80;;;;;;;12.61;65.28;97635.22;5073485;28;20225;-72
2022/12/25 01:57:05;;;;;;;5.80;2.70;;;;;;;12.62;65.73;97636.06;5089496;28;20428;-72
2022/12/25 01:59:31;;;;;;;3.97;3.00;;;;;;;12.55;65.53;97631.41;5065509;28;20507;-72
2022/12/25 02:01:57;;;;;;;3.00;2.40;;;;;;;12.50;65.38;97622.34;5073540;28;20831;-73
2022/12/25 02:04:38;;;;;;;2.27;2.07;;;;;;;12.51;65.73;97619.59;5073786;28;20202;-72
2022/12/25 02:07:22;;;;;;;3.93;1.93;;;;;;;12.43;65.38;97628.22;5065357;28;20423;-73
2022/12/25 02:09:47;;;;;;;3.80;2.27;;;;;;;12.46;65.84;97626.28;5070799;28;20566;-74
2022/12/25 02:12:24;;;;;;;4.00;2.40;;;;;;;12.34;66.07;97617.81;5071189;28;20555;-73
2022/12/25 02:14:51;;;;;;;2.30;2.10;;;;;;;12.36;65.94;97619.28;5067789;28;20170;-72
2022/12/25 02:17:23;;;;;;;2.90;2.33;;;;;;;12.44;65.91;97616.75;5072285;28;20792;-73
2022/12/25 02:20:22;;;;;;;2.97;2.67;;;;;;;12.36;65.84;97616.66;5068002;28;21007;-73
2022/12/25 02:23:18;;;;;;;2.97;2.43;;;;;;;12.40;66.50;97612.75;5077110;28;20444;-72
2022/12/25 02:25:46;;;;;;;5.30;2.43;;;;;;;12.49;66.10;97615.44;5070719;28;20413;-73
2022/12/25 02:28:32;;;;;;;2.60;2.40;;;;;;;12.50;65.81;97604.78;5074502;28;20509;-73
2022/12/25 02:31:06;;;;;;;2.93;2.30;;;;;;;12.49;66.17;97599.66;5067651;28;20425;-72
2022/12/25 02:34:02;;;;;;;3.20;2.30;;;;;;;12.52;65.70;97602.81;5073561;28;20452;-72
2022/12/25 02:36:32;;;;;;;2.90;2.60;;;;;;;12.53;66.03;97604.47;5077219;28;20516;-73
2022/12/25 02:41:46;;;;;;;2.77;2.57;;;;;;;12.51;65.65;97608.22;5060719;28;20477;-74
2022/12/25 03:06:42;;;;;;;5.83;3.30;;;;;;;12.51;66.60;97606.44;5071748;28;20405;-74
2022/12/25 03:12:00;;;;;;;8.10;3.53;;;;;;;12.39;66.26;97595.34;5063771;28;20500;-73
2022/12/25 03:17:10;;;;;;;6.80;3.60;;;;;;;12.36;66.30;97590.38;5078091;28;20420;-74
2022/12/25 03:28:11;;;;;;;8.97;5.10;;;;;;;12.29;66.68;97579.66;5048652;28;20464;-73
2022/12/25 03:33:37;;;;;;;8.23;5.00;;;;;;;12.28;66.92;97587.72;5071541;28;20768;-72
2022/12/25 03:36:06;;;;;;;8.10;4.83;;;;;;;12.28;66.58;97577.19;5072278;28;20760;-73
2022/12/25 03:45:02;;;;;;;7.13;4.60;;;;;;;12.35;66.79;97561.63;5073453;28;20578;-73
2022/12/25 04:37:41;;;;;;;12.33;6.93;;;;;;;12.05;67.26;97556.69;5045234;28;20421;-72
2022/12/25 04:40:07;;;;;;;8.03;6.80;;;;;;;12.10;67.55;97558.84;5051523;28;20421;-70
2022/12/25 04:42:33;;;;;;;8.03;6.83;;;;;;;12.08;67.05;97555.53;5066762;28;20178;-73
2022/12/25 04:44:58;;;;;;;7.17;6.47;;;;;;;12.04;67.09;97548.94;5050645;28;20425;-72
2022/12/25 04:47:23;;;;;;;7.70;6.60;;;;;;;12.10;67.20;97546.53;5052311;28;20316;-73
2022/12/25 04:49:49;;;;;;;7.93;6.57;;;;;;;12.15;67.25;97556.59;5061380;28;20186;-74
2022/12/25 04:52:15;;;;;;;10.80;6.73;;;;;;;12.19;67.15;97552.66;5070715;28;20260;-74
2022/12/25 04:54:40;;;;;;;7.90;6.30;;;;;;;12.18;66.90;97545.75;5070053;28;20240;-72
2022/12/25 04:57:06;;;;;;;6.47;5.63;;;;;;;12.19;66.61;97536.91;5072087;28;20316;-74
2022/12/25 04:59:31;;;;;;;8.70;6.60;;;;;;;12.11;66.54;97534.22;5070517;28;20252;-73
2022/12/25 05:01:56;;;;;;;7.57;6.60;;;;;;;12.13;66.94;97540.97;5087146;28;20210;-74
2022/12/25 05:04:22;;;;;;;12.27;6.73;;;;;;;12.20;66.95;97537.72;5085784;28;20198;-75
2022/12/25 05:06:47;;;;;;;11.13;7.43;;;;;;;12.20;66.24;97543.81;5078743;28;20175;-73
2022/12/25 05:09:13;;;;;;;6.60;5.90;;;;;;;12.18;66.50;97535.25;5084696;28;20620;-73
2022/12/25 05:11:38;;;;;;;8.33;5.97;;;;;;;12.23;66.38;97526.88;5072140;28;20206;-73
2022/12/25 05:14:04;;;;;;;8.20;6.53;;;;;;;12.24;66.39;97525.91;5083861;28;20198;-72
2022/12/25 05:16:29;;;;;;;7.77;6.60;;;;;;;12.22;66.70;97530.53;5065385;28;20186;-73
2022/12/25 05:18:55;;;;;;;6.93;6.30;;;;;;;12.24;66.75;97534.63;5084084;28;20187;-74
2022/12/25 05:21:21;;;;;;;7.30;5.10;;;;;;;12.19;66.33;97526.38;5083578;28;20191;-73
2022/12/25 05:23:51;;;;;;;7.33;5.27;;;;;;;12.19;66.17;97534.28;5065544;28;20202;-73
2022/12/25 05:26:19;;;;;;;5.70;4.87;;;;;;;12.25;65.82;97532.81;5047431;28;20477;-71
2022/12/25 05:28:45;;;;;;;8.53;4.90;;;;;;;12.30;65.89;97522.69;5060815;28;20513;-72
2022/12/25 05:31:11;;;;;;;6.30;5.03;;;;;;;12.29;66.08;97526.28;5074412;28;20417;-73
2022/12/25 05:33:36;;;;;;;7.43;5.00;;;;;;;12.22;65.50;97525.28;5074792;28;20456;-71
2022/12/25 05:36:03;;;;;;;5.03;4.50;;;;;;;12.22;66.39;97525.28;5074117;28;20179;-73
2022/12/25 05:38:30;;;;;;;5.10;3.90;;;;;;;12.15;66.63;97535.56;5073696;28;20235;-74
2022/12/25 05:40:55;;;;;;;4.50;4.10;;;;;;;12.20;66.04;97528.03;5073249;28;20444;-71
2022/12/25 05:43:20;;;;;;;5.10;4.30;;;;;;;12.26;66.27;97521.34;5073710;28;21007;-74
2022/12/25 05:45:46;;;;;;;4.33;3.43;;;;;;;12.28;65.98;97517.59;5074313;28;20214;-71
2022/12/25 05:48:11;;;;;;;4.00;3.53;;;;;;;12.30;65.73;97522.69;5081670;28;20252;-73
2022/12/25 05:50:37;;;;;;;6.37;3.90;;;;;;;12.29;65.81;97515.78;5054526;28;20258;-72
2022/12/25 05:53:07;;;;;;;5.40;3.80;;;;;;;12.32;65.71;97506.75;5070660;28;20217;-73
2022/12/25 05:55:34;;;;;;;4.47;3.93;;;;;;;12.31;66.04;97502.47;5074465;28;20210;-73
2022/12/25 05:57:59;;;;;;;5.27;3.83;;;;;;;12.34;66.17;97508.25;5073799;28;20449;-74
2022/12/25 06:00:25;;;;;;;7.30;4.10;;;;;;;12.28;66.11;97504.47;5061512;28;20456;-73
2022/12/25 06:02:50;;;;;;;3.90;3.60;;;;;;;12.31;66.16;97497.22;5074395;28;20233;-73
2022/12/25 06:05:16;;;;;;;6.13;4.20;;;;;;;12.34;66.41;97494.28;5074287;28;20637;-73
2022/12/25 06:07:41;;;;;;;6.10;3.43;;;;;;;12.30;66.30;97496.41;5074098;28;20206;-71
2022/12/25 06:10:07;;;;;;;3.40;3.10;;;;;;;12.31;66.25;97500.69;5086034;28;20266;-71
2022/12/25 06:12:33;;;;;;;6.10;3.20;;;;;;;12.33;66.22;97495.25;5066078;28;20187;-73
2022/12/25 06:14:58;;;;;;;5.23;3.33;;;;;;;12.37;65.91;97488.72;5064245;28;20424;-74
2022/12/25 06:17:25;;;;;;;4.23;3.00;;;;;;;12.36;65.50;97490.50;5060047;28;20267;-73
2022/12/25 06:19:50;;;;;;;3.90;2.90;;;;;;;12.37;65.32;97484.28;5057213;28;20183;-73
2022/12/25 06:22:16;;;;;;;3.77;2.80;;;;;;;12.40;65.06;97478.72;5071256;28;20423;-72
2022/12/25 06:24:41;;;;;;;3.10;2.77;;;;;;;12.38;65.29;97478.03;5061974;28;20225;-71
2022/12/25 06:27:07;;;;;;;4.70;2.73;;;;;;;12.39;65.23;97474.44;5062871;28;20299;-72
2022/12/25 06:29:32;;;;;;;3.83;2.60;;;;;;;12.37;65.73;97479.00;5073567;28;20391;-74
2022/12/25 06:31:58;;;;;;;3.87;2.97;;;;;;;12.39;65.76;97460.47;5074039;28;20274;-73
2022/12/25 06:34:23;;;;;;;3.23;2.87;;;;;;;12.38;65.51;97467.53;5070221;28;20224;-73
2022/12/25 06:36:49;;;;;;;3.23;2.70;;;;;;;12.37;65.37;97476.38;5061093;28;20214;-73
2022/12/25 06:39:14;;;;;;;4.20;2.60;;;;;;;12.28;65.62;97483.44;5074848;28;20201;-73
2022/12/25 06:41:40;;;;;;;5.03;2.90;;;;;;;12.34;65.95;97487.25;5070715;28;20185;-72
2022/12/25 06:44:05;;;;;;;3.20;2.90;;;;;;;12.35;65.92;97480.97;5072422;28;20225;-72
2022/12/25 06:46:31;;;;;;;3.93;2.90;;;;;;;12.34;66.11;97492.50;5071343;28;20661;-71
2022/12/25 06:48:58;;;;;;;3.83;2.60;;;;;;;12.31;66.06;97482.28;5072010;28;20212;-72
2022/12/25 06:51:26;;;;;;;3.20;2.90;;;;;;;12.30;66.28;97488.53;5070559;28;20327;-73
2022/12/25 06:53:53;;;;;;;4.43;3.70;;;;;;;12.33;66.10;97495.25;5060499;28;20452;-73
2022/12/25 06:56:20;;;;;;;4.27;3.30;;;;;;;12.31;65.81;97497.22;5070289;28;20797;-73
2022/12/25 06:58:48;;;;;;;3.60;2.50;;;;;;;12.34;66.23;97492.50;5063331;28;20483;-71
2022/12/25 07:01:21;;;;;;;4.80;2.40;;;;;;;12.35;65.32;97493.31;5069430;28;20424;-73
2022/12/25 07:03:48;;;;;;;2.57;2.23;;;;;;;12.27;65.49;97501.97;5070124;28;20437;-72
2022/12/25 07:06:14;;;;;;;2.33;2.00;;;;;;;12.26;65.65;97495.91;5070635;28;20424;-72
2022/12/25 07:08:39;;;;;;;2.33;2.13;;;;;;;12.31;65.75;97494.59;5065569;28;20978;-71
2022/12/25 07:11:05;;;;;;;2.30;2.10;;;;;;;12.33;65.54;97493.47;5065075;28;20186;-72
2022/12/25 07:13:30;;;;;;;3.20;2.67;;;;;;;12.37;65.62;97492.16;5062897;28;20703;-73
2022/12/25 07:15:57;;;;;;;6.07;3.10;;;;;;;12.37;65.53;97489.53;5072879;28;20637;-70
2022/12/25 07:18:22;;;;;;;2.70;2.27;;;;;;;12.32;65.49;97504.13;5087278;28;20229;-72
2022/12/25 07:20:48;;;;;;;2.70;2.10;;;;;;;12.28;65.54;97493.94;5071673;28;20931;-72
2022/12/25 07:23:13;;;;;;;2.53;2.33;;;;;;;12.25;65.95;97493.41;5062333;28;20203;-72
2022/12/25 07:25:39;;;;;;;3.00;2.43;;;;;;;12.31;65.84;97486.69;5064583;28;20650;-72
2022/12/25 07:28:04;;;;;;;3.93;2.43;;;;;;;12.31;65.62;97484.91;5067181;28;20297;-72
2022/12/25 07:30:29;;;;;;;4.00;2.80;;;;;;;12.25;65.84;97486.38;5070598;28;20178;-72
2022/12/25 07:32:55;;;;;;;3.70;2.40;;;;;;;12.24;65.59;97482.09;5071449;28;20301;-72
2022/12/25 07:35:21;;;;;;;3.50;2.30;;;;;;;12.25;65.89;97478.47;5070125;28;20638;-72
2022/12/25 07:37:46;;;;;;;3.10;2.80;;;;;;;12.29;66.08;97476.34;5070476;28;20179;-71
2022/12/25 07:40:12;;;;;;;4.20;2.60;;;;;;;12.34;65.75;97470.63;5070841;28;20265;-72
2022/12/25 07:42:37;;;;;;;2.50;2.30;;;;;;;12.33;66.18;97464.56;5064320;28;20174;-74
2022/12/25 07:45:03;;;;;;;3.40;3.10;;;;;;;12.26;66.42;97459.09;5066785;28;20202;-73
2022/12/25 07:47:29;;;;;;;4.20;3.20;;;;;;;12.21;66.38;97445.59;5070611;28;20187;-70
2022/12/25 07:49:54;;;;;;;4.90;3.03;;;;;;;12.29;66.29;97439.56;5070907;28;21070;-73
2022/12/25 07:52:20;;;;;;;5.43;2.97;;;;;;;12.31;66.26;97440.25;5070703;28;20210;-73
2022/12/25 07:54:45;;;;;;;2.03;1.83;;;;;;;12.34;66.11;97445.19;5070979;28;20182;-72
2022/12/25 07:57:11;;;;;;;2.30;2.10;;;;;;;12.32;66.26;97448.94;5066870;28;20697;-72
2022/12/25 07:59:36;;;;;;;5.90;1.73;;;;;;;12.35;66.28;97440.75;5068964;28;20885;-73
2022/12/25 08:02:01;;;;;;;1.60;1.50;;;;;;;12.37;65.83;97441.41;5071976;28;20656;-72
2022/12/25 08:04:27;;;;;;;3.37;1.80;;;;;;;12.43;66.07;97448.66;5071837;28;20206;-72
2022/12/25 08:06:52;;;;;;;2.57;2.10;;;;;;;12.47;65.73;97457.06;5070162;28;20213;-73
2022/12/25 08:09:18;;;;;;;4.50;2.77;;;;;;;12.46;65.75;97464.13;5070249;28;20293;-72
2022/12/25 08:11:45;;;;;;;2.50;2.30;;;;;;;12.41;66.01;97471.66;5079926;28;20257;-72
2022/12/25 08:14:11;;;;;;;3.27;2.37;;;;;;;12.46;65.83;97474.63;5062562;28;20646;-73
2022/12/25 08:16:40;;;;;;;2.90;2.30;;;;;;;12.44;65.72;97474.78;5078533;28;20428;-73
2022/12/25 08:19:06;;;;;;;3.80;2.37;;;;;;;12.42;66.05;97474.13;5071032;28;20546;-73
2022/12/25 08:21:32;;;;;;;4.53;2.70;;;;;;;12.50;66.10;97469.88;5072130;28;20424;-72
2022/12/25 08:23:57;;;;;;;2.60;2.40;;;;;;;12.74;65.68;97469.16;5071289;28;20441;-73
2022/12/25 08:26:23;;;;;;;2.63;2.33;;;;;;;13.19;65.49;97477.63;5070435;28;20192;-73
2022/12/25 08:28:48;;;;;;;3.03;2.50;;;;;;;13.62;64.34;97480.97;5066767;28;20255;-72
2022/12/25 08:31:14;;;;;;;3.90;2.90;;;;;;;14.15;62.50;97475.31;5068317;28;20186;-73
2022/12/25 08:33:39;;;;;;;5.80;4.60;;;;;;;14.59;61.09;97469.59;5069577;28;20225;-72
2022/12/25 08:36:06;;;;;;;9.73;8.43;;;;;;;14.90;60.30;97473.25;5068714;28;20213;-72
2022/12/25 08:38:32;;;;;;;14.50;10.33;;;;;;;15.26;59.55;97466.59;5054467;28;20182;-73
2022/12/25 08:40:57;;;;;;;15.67;13.60;;;;;;;15.28;57.92;97481.28;5067270;28;20433;-72
2022/12/25 08:43:23;;;;;;;20.23;15.80;;;;;;;15.18;58.42;97483.34;5068641;28;20626;-72
2022/12/25 08:45:48;;;;;;;12.13;10.43;;;;;;;15.26;57.89;97477.16;5070427;28;20265;-73
2022/12/25 08:48:14;;;;;;;9.00;7.73;;;;;;;15.24;57.64;97474.69;5068806;28;20305;-72
2022/12/25 08:50:47;;;;;;;18.43;13.37;;;;;;;15.26;57.44;97479.78;5062781;28;20219;-73
2022/12/25 08:53:13;;;;;;;9.30;8.30;;;;;;;15.17;57.75;97471.94;5073734;28;20633;-73
2022/12/25 08:55:39;;;;;;;14.37;11.70;;;;;;;15.07;58.00;97470.50;5074646;28;20417;-73
2022/12/25 08:58:04;;;;;;;36.07;24.50;;;;;;;14.74;58.59;97468.91;5066223;28;20499;-73
2022/12/25 09:00:30;;;;;;;4.53;4.13;;;;;;;14.67;59.51;97462.63;5072755;28;20676;-73
2022/12/25 09:02:55;;;;;;;4.93;4.17;;;;;;;14.92;58.89;97442.25;5073694;28;20201;-72
2022/12/25 09:05:21;;;;;;;4.67;4.27;;;;;;;15.24;58.32;97436.94;5066810;28;20186;-73
2022/12/25 09:07:46;;;;;;;5.70;5.10;;;;;;;15.51;57.47;97411.78;5073051;28;20190;-72
2022/12/25 09:10:11;;;;;;;7.27;5.80;;;;;;;15.78;56.45;97417.47;5067727;28;20218;-73
2022/12/25 09:12:37;;;;;;;9.40;7.73;;;;;;;16.08;55.78;97407.78;5062607;28;20262;-73
2022/12/25 09:15:03;;;;;;;12.33;9.40;;;;;;;16.39;54.93;97413.88;5061315;28;20178;-73
2022/12/25 09:17:29;;;;;;;11.87;9.90;;;;;;;16.56;54.25;97414.47;5073676;28;20189;-72
2022/12/25 09:19:54;;;;;;;12.07;9.37;;;;;;;16.65;54.12;97413.34;5072412;28;20484;-74
2022/12/25 09:22:20;;;;;;;7.93;6.97;;;;;;;16.64;53.50;97426.78;5074142;28;20182;-71
2022/12/25 09:24:45;;;;;;;6.60;5.90;;;;;;;16.76;53.99;97427.94;5073790;28;20675;-73
2022/12/25 09:27:11;;;;;;;5.20;4.70;;;;;;;17.27;52.86;97421.75;5070862;28;20179;-73
2022/12/25 09:29:37;;;;;;;8.07;4.53;;;;;;;17.54;52.03;97421.97;5068313;28;20198;-73
2022/12/25 09:32:04;;;;;;;6.07;4.50;;;;;;;17.69;51.65;97421.91;5059199;28;20183;-74
2022/12/25 09:34:29;;;;;;;2.60;2.40;;;;;;;17.69;51.64;97426.38;5070409;28;20469;-74
2022/12/25 09:36:55;;;;;;;4.47;3.47;;;;;;;17.87;51.14;97431.19;5068773;28;20465;-72
2022/12/25 09:39:22;;;;;;;4.93;4.30;;;;;;;17.98;50.83;97425.38;5071296;28;20533;-72
2022/12/25 09:42:12;;;;;;;8.90;3.33;;;;;;;18.21;49.97;97430.44;5063018;28;20183;-73
2022/12/25 09:44:49;;;;;;;3.07;2.87;;;;;;;18.54;49.46;97426.31;5072456;28;20440;-74
2022/12/25 09:47:18;;;;;;;3.20;2.50;;;;;;;18.90;48.48;97430.50;5068503;28;20951;-71
2022/12/25 09:49:51;;;;;;;2.70;2.33;;;;;;;19.22;48.01;97427.31;5072200;28;20449;-72
2022/12/25 09:52:33;;;;;;;3.43;2.47;;;;;;;19.47;47.21;97423.06;5073094;28;20417;-73
2022/12/25 09:55:04;;;;;;;2.00;1.80;;;;;;;19.84;46.34;97424.47;5073812;28;20425;-72
2022/12/25 09:57:31;;;;;;;3.67;1.60;;;;;;;20.07;45.61;97424.06;5081992;28;20477;-73
2022/12/25 09:59:57;;;;;;;2.40;1.50;;;;;;;20.36;45.06;97427.25;5073369;28;20417;-71
2022/12/25 10:02:31;;;;;;;3.80;1.50;;;;;;;20.45;44.88;97436.66;5072674;28;20444;-73
2022/12/25 10:05:21;;;;;;;1.73;1.53;;;;;;;20.79;44.06;97436.56;5069134;28;20188;-72
2022/12/25 10:08:04;;;;;;;3.43;2.40;;;;;;;21.11;43.66;97428.56;5072762;28;20421;-72
2022/12/25 10:10:37;;;;;;;3.93;1.57;;;;;;;21.38;43.17;97418.53;5066350;28;20415;-73
2022/12/25 10:13:21;;;;;;;2.30;1.67;;;;;;;21.86;42.18;97411.00;5064833;28;20528;-73
2022/12/25 10:16:37;;;;;;;1.77;1.67;;;;;;;22.15;42.11;97406.81;5065498;28;20463;-71
2022/12/25 10:19:28;;;;;;;1.80;1.50;;;;;;;22.41;40.98;97407.59;5039763;28;20425;-73
2022/12/25 10:21:57;;;;;;;1.83;1.63;;;;;;;22.64;40.71;97398.84;5081424;28;20421;-73
2022/12/25 10:24:33;;;;;;;2.97;2.00;;;;;;;22.84;39.79;97409.28;5071488;28;20824;-72
2022/12/25 10:27:01;;;;;;;2.83;1.77;;;;;;;23.07;39.25;97399.72;5039637;28;20428;-73
2022/12/25 10:29:30;;;;;;;1.57;1.40;;;;;;;22.86;39.70;97396.50;5071760;28;20471;-73
2022/12/25 10:31:55;;;;;;;2.07;1.70;;;;;;;22.60;40.23;97399.53;5072316;28;20440;-72
2022/12/25 10:34:21;;;;;;;3.20;1.70;;;;;;;21.99;40.96;97388.72;5071672;28;20472;-72
2022/12/25 10:36:48;;;;;;;2.77;1.73;;;;;;;21.93;41.04;97383.22;5069225;28;20175;-72
2022/12/25 10:39:24;;;;;;;1.97;1.63;;;;;;;21.84;41.63;97383.75;5070839;28;20496;-73
2022/12/25 10:42:20;;;;;;;2.57;1.60;;;;;;;21.56;42.19;97371.66;5069269;28;20441;-70
2022/12/25 10:45:04;;;;;;;1.63;1.43;;;;;;;21.71;42.52;97353.50;5071504;28;20441;-74
2022/12/25 10:47:33;;;;;;;2.47;1.33;;;;;;;21.41;42.71;97366.66;5070323;28;20428;-73
2022/12/25 10:49:59;;;;;;;1.93;1.53;;;;;;;21.42;42.53;97354.97;5071793;28;20832;-73
2022/12/25 10:52:26;;;;;;;1.47;1.37;;;;;;;21.37;42.89;97350.28;5070407;28;20425;-72
2022/12/25 10:54:52;;;;;;;1.47;1.37;;;;;;;21.38;43.06;97356.44;5071492;28;20265;-72
2022/12/25 10:57:21;;;;;;;2.90;1.47;;;;;;;21.40;42.87;97344.50;5065966;28;20516;-73
2022/12/25 10:59:47;;;;;;;3.30;1.80;;;;;;;21.32;43.17;97344.78;5076613;28;20548;-73
2022/12/25 11:02:35;;;;;;;1.77;1.40;;;;;;;21.07;43.89;97344.78;5074269;28;20558;-73
2022/12/25 11:05:07;;;;;;;1.87;1.50;;;;;;;20.71;44.44;97337.19;5071113;28;20428;-75
2022/12/25 11:07:45;;;;;;;2.20;1.90;;;;;;;20.52;45.09;97338.94;5072381;28;20416;-73
2022/12/25 11:10:32;;;;;;;2.57;1.70;;;;;;;20.16;46.12;97347.50;5065849;28;20417;-73
2022/12/25 11:12:59;;;;;;;3.20;2.03;;;;;;;20.01;45.75;97337.94;5064784;28;20486;-71
2022/12/25 11:15:30;;;;;;;2.20;1.43;;;;;;;19.68;47.08;97341.44;5065530;28;20429;-73
2022/12/25 11:17:55;;;;;;;1.67;1.57;;;;;;;19.69;46.97;97337.78;5065489;28;20476;-73
2022/12/25 11:20:21;;;;;;;1.93;1.83;;;;;;;19.59;47.52;97334.72;5065802;28;20942;-73
2022/12/25 11:22:48;;;;;;;2.10;1.77;;;;;;;19.59;46.86;97340.88;5065057;28;20261;-72
2022/12/25 11:25:21;;;;;;;1.60;1.50;;;;;;;19.55;47.37;97341.47;5069268;28;20182;-73
2022/12/25 11:28:02;;;;;;;1.50;1.40;;;;;;;19.49;47.41;97325.34;5062713;28;20432;-73
2022/12/25 11:30:29;;;;;;;2.17;1.83;;;;;;;19.68;47.41;97330.00;5071320;28;20949;-72
2022/12/25 11:32:58;;;;;;;3.70;1.90;;;;;;;19.79;47.45;97321.41;5068436;28;20850;-71
2022/12/25 11:35:27;;;;;;;2.20;2.00;;;;;;;19.83;47.25;97313.81;5072123;28;20462;-72
2022/12/25 11:37:52;;;;;;;7.20;1.80;;;;;;;19.96;46.69;97321.78;5070078;28;20428;-73
2022/12/25 11:40:22;;;;;;;2.90;1.80;;;;;;;19.99;46.86;97318.72;5070885;28;20451;-72
2022/12/25 11:43:08;;;;;;;1.83;1.73;;;;;;;20.05;46.71;97319.72;5086706;28;20190;-73
2022/12/25 11:45:48;;;;;;;3.87;2.03;;;;;;;20.01;46.68;97310.50;5055630;28;20478;-71
2022/12/25 11:48:17;;;;;;;2.57;1.97;;;;;;;20.17;47.10;97302.06;5080707;28;20481;-74
2022/12/25 11:50:45;;;;;;;2.80;2.40;;;;;;;20.36;46.92;97305.66;5053768;28;20478;-73
2022/12/25 11:53:18;;;;;;;4.13;2.40;;;;;;;20.49;46.37;97303.94;5070938;28;20523;-71
2022/12/25 11:55:53;;;;;;;2.30;2.10;;;;;;;20.65;46.25;97292.81;5069953;28;20916;-73
2022/12/25 11:58:41;;;;;;;2.17;1.77;;;;;;;20.71;45.90;97280.47;5080798;28;20459;-73
2022/12/25 12:01:29;;;;;;;1.87;1.77;;;;;;;20.92;45.67;97281.97;5069986;28;20417;-72
2022/12/25 12:03:55;;;;;;;2.53;2.00;;;;;;;21.03;46.05;97272.47;5057202;28;20510;-73
2022/12/25 12:06:23;;;;;;;1.93;1.73;;;;;;;21.29;45.14;97267.94;5069189;28;20456;-73
2022/12/25 12:08:52;;;;;;;2.50;2.07;;;;;;;21.38;45.10;97258.63;5068605;28;20260;-72
2022/12/25 12:11:22;;;;;;;2.27;2.07;;;;;;;21.57;44.75;97246.09;5063965;28;20423;-72
2022/12/25 12:14:29;;;;;;;2.30;2.10;;;;;;;21.57;44.36;97242.66;5078883;28;20494;-74
2022/12/25 12:16:54;;;;;;;4.37;2.40;;;;;;;21.64;44.20;97251.41;5069663;28;20508;-73
2022/12/25 12:19:30;;;;;;;4.00;2.17;;;;;;;21.35;44.69;97239.59;5070201;28;20501;-72
2022/12/25 12:21:57;;;;;;;1.67;1.57;;;;;;;21.12;44.93;97233.84;5057953;28;20200;-71
2022/12/25 12:24:27;;;;;;;2.10;1.80;;;;;;;20.90;44.91;97232.63;5085455;28;20947;-72
2022/12/25 12:27:04;;;;;;;2.40;1.97;;;;;;;21.21;45.12;97231.72;5060174;28;20413;-73
2022/12/25 12:29:39;;;;;;;3.40;1.90;;;;;;;21.33;44.79;97234.50;5069791;28;20822;-72
2022/12/25 12:32:19;;;;;;;2.00;1.80;;;;;;;20.93;45.24;97232.19;5086090;28;20467;-72
2022/12/25 12:34:48;;;;;;;2.10;1.87;;;;;;;20.71;45.86;97228.03;5052805;28;20912;-72
2022/12/25 12:37:18;;;;;;;4.60;2.00;;;;;;;20.60;45.99;97234.06;5060305;28;20425;-72
2022/12/25 12:39:43;;;;;;;2.07;1.70;;;;;;;20.61;46.24;97237.50;5069865;28;20425;-72
2022/12/25 12:42:14;;;;;;;3.10;1.50;;;;;;;20.69;46.02;97240.72;5066937;28;20930;-72
2022/12/25 12:44:39;;;;;;;1.77;1.67;;;;;;;20.58;46.06;97233.44;5070016;28;20279;-73
2022/12/25 12:47:04;;;;;;;1.70;1.60;;;;;;;20.53;46.18;97233.28;5069247;28;20474;-73
2022/12/25 12:49:32;;;;;;;2.27;1.70;;;;;;;20.66;45.98;97237.69;5069205;28;20202;-73
2022/12/25 12:52:22;;;;;;;2.40;1.80;;;;;;;20.68;45.80;97238.31;5063286;28;20183;-71
2022/12/25 12:55:00;;;;;;;4.07;1.80;;;;;;;20.61;46.20;97226.88;5062158;28;20444;-74
2022/12/25 12:57:29;;;;;;;6.40;1.90;;;;;;;20.53;46.36;97230.63;5066922;28;20451;-73
2022/12/25 12:59:56;;;;;;;1.80;1.60;;;;;;;20.71;46.06;97232.56;5085728;28;20436;-72
2022/12/25 13:02:40;;;;;;;1.83;1.73;;;;;;;20.70;46.48;97229.06;5068362;28;20511;-74
2022/12/25 13:05:15;;;;;;;3.00;1.47;;;;;;;20.79;46.43;97223.50;5071012;28;20951;-72
2022/12/25 13:08:12;;;;;;;1.93;1.70;;;;;;;20.67;45.85;97223.34;5064480;28;20424;-73
2022/12/25 13:10:40;;;;;;;2.10;1.90;;;;;;;20.80;45.61;97215.28;5064399;28;20425;-72
2022/12/25 13:13:19;;;;;;;2.10;1.70;;;;;;;20.79;45.20;97207.53;5061448;28;20460;-72
2022/12/25 13:15:47;;;;;;;1.97;1.87;;;;;;;20.70;45.56;97207.75;5038160;28;20474;-74
2022/12/25 13:18:13;;;;;;;1.90;1.70;;;;;;;20.63;45.37;97207.00;5009119;28;20475;-74
2022/12/25 13:21:03;;;;;;;1.60;1.50;;;;;;;20.45;45.89;97206.91;5073003;28;20430;-72